地図

経路データ

SID SEASON NUMBER BASIN SUBBASIN NAME ISO_TIME NATURE LAT LON WMO_WIND WMO_PRES WMO_AGENCY TRACK_TYPE DIST2LAND LANDFALL IFLAG USA_AGENCY USA_ATCF_ID USA_LAT USA_LON USA_RECORD USA_STATUS USA_WIND USA_PRES USA_SSHS USA_R34_NE USA_R34_SE USA_R34_SW USA_R34_NW USA_R50_NE USA_R50_SE USA_R50_SW USA_R50_NW USA_R64_NE USA_R64_SE USA_R64_SW USA_R64_NW USA_POCI USA_ROCI USA_RMW USA_EYE TOKYO_LAT TOKYO_LON TOKYO_GRADE TOKYO_WIND TOKYO_PRES TOKYO_R50_DIR TOKYO_R50_LONG TOKYO_R50_SHORT TOKYO_R30_DIR TOKYO_R30_LONG TOKYO_R30_SHORT TOKYO_LAND CMA_LAT CMA_LON CMA_CAT CMA_WIND CMA_PRES HKO_LAT HKO_LON HKO_CAT HKO_WIND HKO_PRES NEWDELHI_LAT NEWDELHI_LON NEWDELHI_GRADE NEWDELHI_WIND NEWDELHI_PRES NEWDELHI_CI NEWDELHI_DP NEWDELHI_POCI REUNION_LAT REUNION_LON REUNION_TYPE REUNION_WIND REUNION_PRES REUNION_TNUM REUNION_CI REUNION_RMW REUNION_R34_NE REUNION_R34_SE REUNION_R34_SW REUNION_R34_NW REUNION_R50_NE REUNION_R50_SE REUNION_R50_SW REUNION_R50_NW REUNION_R64_NE REUNION_R64_SE REUNION_R64_SW REUNION_R64_NW BOM_LAT BOM_LON BOM_TYPE BOM_WIND BOM_PRES BOM_TNUM BOM_CI BOM_RMW BOM_R34_NE BOM_R34_SE BOM_R34_SW BOM_R34_NW BOM_R50_NE BOM_R50_SE BOM_R50_SW BOM_R50_NW BOM_R64_NE BOM_R64_SE BOM_R64_SW BOM_R64_NW BOM_ROCI BOM_POCI BOM_EYE BOM_POS_METHOD BOM_PRES_METHOD NADI_LAT NADI_LON NADI_CAT NADI_WIND NADI_PRES WELLINGTON_LAT WELLINGTON_LON WELLINGTON_WIND WELLINGTON_PRES DS824_LAT DS824_LON DS824_STAGE DS824_WIND DS824_PRES TD9636_LAT TD9636_LON TD9636_STAGE TD9636_WIND TD9636_PRES TD9635_LAT TD9635_LON TD9635_WIND TD9635_PRES TD9635_ROCI NEUMANN_LAT NEUMANN_LON NEUMANN_CLASS NEUMANN_WIND NEUMANN_PRES MLC_LAT MLC_LON MLC_CLASS MLC_WIND MLC_PRES USA_GUST BOM_GUST BOM_GUST_PER REUNION_GUST REUNION_GUST_PER USA_SEAHGT USA_SEARAD_NE USA_SEARAD_SE USA_SEARAD_SW USA_SEARAD_NW STORM_SPEED STORM_DIR
1920260N12284 1920 39 NA CS NOT_NAMED 1920-09-16 06:00:00 TS 11.7000 -76.5000 30 hurdat_atl main 164 164 O_____________ hurdat_atl AL021920 11.7000 -76.5000 TD 30 -1 10 287
1920260N12284 1920 39 NA CS NOT_NAMED 1920-09-16 09:00:00 TS 11.8426 -76.9899 main 211 211 P_____________ AL021920 11.8426 -76.9899 TD 30 -1 10 287
1920260N12284 1920 39 NA CS NOT_NAMED 1920-09-16 12:00:00 TS 12.0000 -77.5000 30 hurdat_atl main 268 268 O_____________ hurdat_atl AL021920 12.0000 -77.5000 TD 30 -1 11 288
1920260N12284 1920 39 NA CS NOT_NAMED 1920-09-16 15:00:00 TS 12.1849 -78.0426 main 325 317 P_____________ AL021920 12.1849 -78.0426 TD 30 -1 11 290
1920260N12284 1920 39 NA CS NOT_NAMED 1920-09-16 18:00:00 TS 12.4000 -78.6000 30 hurdat_atl main 329 327 O_____________ hurdat_atl AL021920 12.4000 -78.6000 TD 30 -1 12 293
1920260N12284 1920 39 NA CS NOT_NAMED 1920-09-16 21:00:00 TS 12.6499 -79.1575 main 347 347 P_____________ AL021920 12.6499 -79.1575 TD 30 -1 12 295
1920260N12284 1920 39 NA CS NOT_NAMED 1920-09-17 00:00:00 TS 12.9000 -79.7000 30 hurdat_atl main 380 350 O_____________ hurdat_atl AL021920 12.9000 -79.7000 TD 30 -1 11 294
1920260N12284 1920 39 NA CS NOT_NAMED 1920-09-17 03:00:00 TS 13.1074 -80.2226 main 350 292 P_____________ AL021920 13.1074 -80.2226 TD 30 -1 11 292
1920260N12284 1920 39 NA CS NOT_NAMED 1920-09-17 06:00:00 TS 13.3000 -80.7000 30 hurdat_atl main 292 243 O_____________ hurdat_atl AL021920 13.3000 -80.7000 TD 30 -1 10 294
1920260N12284 1920 39 NA CS NOT_NAMED 1920-09-17 09:00:00 TS 13.4999 -81.1151 main 243 195 P_____________ AL021920 13.4999 -81.1151 TD 30 -1 9 297
1920260N12284 1920 39 NA CS NOT_NAMED 1920-09-17 12:00:00 TS 13.7000 -81.5000 30 hurdat_atl main 195 147 O_____________ hurdat_atl AL021920 13.7000 -81.5000 TD 30 -1 9 298
1920260N12284 1920 39 NA CS NOT_NAMED 1920-09-17 15:00:00 TS 13.8999 -81.9001 main 147 99 P_____________ AL021920 13.8999 -81.9001 TD 30 -1 9 297
1920260N12284 1920 39 NA CS NOT_NAMED 1920-09-17 18:00:00 TS 14.1000 -82.3000 30 hurdat_atl main 99 53 O_____________ hurdat_atl AL021920 14.1000 -82.3000 TD 30 -1 9 297
1920260N12284 1920 39 NA CS NOT_NAMED 1920-09-17 21:00:00 TS 14.3000 -82.7076 main 53 21 P_____________ AL021920 14.3000 -82.7076 TD 30 -1 9 297
1920260N12284 1920 39 NA CS NOT_NAMED 1920-09-18 00:00:00 TS 14.5000 -83.1000 30 hurdat_atl main 21 0 O_____________ hurdat_atl AL021920 14.5000 -83.1000 TD 30 -1 8 299
1920260N12284 1920 39 NA NA NOT_NAMED 1920-09-18 03:00:00 TS 14.7074 -83.4575 main 0 0 P_____________ AL021920 14.7074 -83.4575 TD 30 -1 8 301
1920260N12284 1920 39 NA NA NOT_NAMED 1920-09-18 06:00:00 TS 14.9000 -83.8000 30 hurdat_atl main 0 0 O_____________ hurdat_atl AL021920 14.9000 -83.8000 TD 30 -1 8 298
1920260N12284 1920 39 NA NA NOT_NAMED 1920-09-18 09:00:00 TS 15.0574 -84.1501 main 0 0 P_____________ AL021920 15.0574 -84.1501 TD 30 -1 7 294
1920260N12284 1920 39 NA NA NOT_NAMED 1920-09-18 12:00:00 TS 15.2000 -84.5000 30 hurdat_atl main 0 0 O_____________ hurdat_atl AL021920 15.2000 -84.5000 TD 30 -1 7 293
1920260N12284 1920 39 NA NA NOT_NAMED 1920-09-18 15:00:00 TS 15.3424 -84.8501 main 0 0 P_____________ AL021920 15.3424 -84.8501 TD 30 -1 7 294
1920260N12284 1920 39 NA NA NOT_NAMED 1920-09-18 18:00:00 TS 15.5000 -85.2000 30 hurdat_atl main 0 0 O_____________ hurdat_atl AL021920 15.5000 -85.2000 TD 30 -1 8 297
1920260N12284 1920 39 NA NA NOT_NAMED 1920-09-18 21:00:00 TS 15.6850 -85.5575 main 0 0 P_____________ AL021920 15.6850 -85.5575 TD 32 -1 8 301
1920260N12284 1920 39 NA NA NOT_NAMED 1920-09-19 00:00:00 TS 15.9000 -85.9000 35 hurdat_atl main 0 0 O_____________ hurdat_atl AL021920 15.9000 -85.9000 TS 35 0 8 305
1920260N12284 1920 39 NA CS NOT_NAMED 1920-09-19 03:00:00 TS 16.1350 -86.2151 main 33 33 P_____________ AL021920 16.1350 -86.2151 TS 35 0 8 311
1920260N12284 1920 39 NA CS NOT_NAMED 1920-09-19 06:00:00 TS 16.4000 -86.5000 35 hurdat_atl main 67 67 O_____________ hurdat_atl AL021920 16.4000 -86.5000 TS 35 0 8 315
1920260N12284 1920 39 NA CS NOT_NAMED 1920-09-19 09:00:00 TS 16.6775 -86.7726 main 101 101 P_____________ AL021920 16.6775 -86.7726 TS 37 0 8 321
1920260N12284 1920 39 NA CS NOT_NAMED 1920-09-19 12:00:00 TS 17.0000 -87.0000 40 hurdat_atl main 127 108 O_____________ hurdat_atl AL021920 17.0000 -87.0000 TS 40 0 8 332
1920260N12284 1920 39 NA CS NOT_NAMED 1920-09-19 15:00:00 TS 17.3700 -87.1651 main 106 69 P_____________ AL021920 17.3700 -87.1651 TS 40 0 9 340
1920260N12284 1920 39 NA CS NOT_NAMED 1920-09-19 18:00:00 TS 17.8000 -87.3000 40 hurdat_atl main 69 42 O_____________ hurdat_atl AL021920 17.8000 -87.3000 TS 40 0 9 343
1920260N12284 1920 39 NA CS NOT_NAMED 1920-09-19 21:00:00 TS 18.2700 -87.4501 main 31 10 P_____________ AL021920 18.2700 -87.4501 TS 42 0 10 344
1920260N12284 1920 39 NA CS NOT_NAMED 1920-09-20 00:00:00 TS 18.8000 -87.6000 45 hurdat_atl main 10 0 O_____________ hurdat_atl AL021920 18.8000 -87.6000 TS 45 0 12 346
1920260N12284 1920 39 NA NA NOT_NAMED 1920-09-20 03:00:00 TS 19.3850 -87.7501 main 0 0 P_____________ AL021920 19.3850 -87.7501 TS 42 0 12 347
1920260N12284 1920 39 NA NA NOT_NAMED 1920-09-20 06:00:00 TS 20.0000 -87.9000 40 hurdat_atl main 0 0 O_____________ hurdat_atl AL021920 20.0000 -87.9000 TS 40 0 13 347
1920260N12284 1920 39 NA NA NOT_NAMED 1920-09-20 09:00:00 TS 20.6000 -88.0501 main 0 0 P_____________ AL021920 20.6000 -88.0501 TS 37 0 12 347
1920260N12284 1920 39 NA NA NOT_NAMED 1920-09-20 12:00:00 TS 21.2000 -88.2000 35 hurdat_atl main 0 0 O_____________ hurdat_atl AL021920 21.2000 -88.2000 TS 35 0 12 347
1920260N12284 1920 39 NA GM NOT_NAMED 1920-09-20 15:00:00 TS 21.8000 -88.3501 main 33 33 P_____________ AL021920 21.8000 -88.3501 TS 40 0 12 347
1920260N12284 1920 39 NA GM NOT_NAMED 1920-09-20 18:00:00 TS 22.4000 -88.5000 45 hurdat_atl main 100 100 O_____________ hurdat_atl AL021920 22.4000 -88.5000 TS 45 0 12 347
1920260N12284 1920 39 NA GM NOT_NAMED 1920-09-20 21:00:00 TS 23.0000 -88.6501 main 168 168 P_____________ AL021920 23.0000 -88.6501 TS 50 0 12 347
1920260N12284 1920 39 NA GM NOT_NAMED 1920-09-21 00:00:00 TS 23.6000 -88.8000 55 999 hurdat_atl main 235 235 O_____________ hurdat_atl AL021920 23.6000 -88.8000 TS 55 999 0 12 347
1920260N12284 1920 39 NA GM NOT_NAMED 1920-09-21 03:00:00 TS 24.2000 -88.9427 main 303 303 P_____________ AL021920 24.2000 -88.9427 TS 60 0 12 347
1920260N12284 1920 39 NA GM NOT_NAMED 1920-09-21 06:00:00 TS 24.8000 -89.1000 65 hurdat_atl main 372 372 O_____________ hurdat_atl AL021920 24.8000 -89.1000 HU 65 1 12 346
1920260N12284 1920 39 NA GM NOT_NAMED 1920-09-21 09:00:00 TS 25.3849 -89.2779 main 402 337 P_____________ AL021920 25.3849 -89.2779 HU 67 1 13 343
1920260N12284 1920 39 NA GM NOT_NAMED 1920-09-21 12:00:00 TS 26.0000 -89.5000 70 hurdat_atl main 337 274 O_____________ hurdat_atl AL021920 26.0000 -89.5000 HU 70 1 14 341
1920260N12284 1920 39 NA GM NOT_NAMED 1920-09-21 15:00:00 TS 26.6775 -89.7851 main 265 189 P_____________ AL021920 26.6775 -89.7851 HU 72 1 15 339
1920260N12284 1920 39 NA GM NOT_NAMED 1920-09-21 18:00:00 TS 27.4000 -90.1000 75 hurdat_atl main 189 113 O_____________ hurdat_atl AL021920 27.4000 -90.1000 HU 75 1 16 340
1920260N12284 1920 39 NA GM NOT_NAMED 1920-09-21 21:00:00 TS 28.1845 -90.4000 main 102 24 P_____________ AL021920 28.1845 -90.4000 HU 80 1 16 341
1920260N12284 1920 39 NA GM NOT_NAMED 1920-09-22 00:00:00 TS 28.9000 -90.7000 85 975 hurdat_atl main 24 9 O_____________ hurdat_atl AL021920 28.9000 -90.7000 HU 85 975 2 15 339
1920260N12284 1920 39 NA GM NOT_NAMED 1920-09-22 01:00:00 TS 29.1000 -90.8000 85 975 hurdat_atl main 9 0 O_____________ hurdat_atl AL021920 29.1000 -90.8000 L HU 85 975 2 16 335
1920260N12284 1920 39 NA NA NOT_NAMED 1920-09-22 03:00:00 TS 29.6027 -91.0759 main 0 0 P_____________ AL021920 29.6027 -91.0759 HU 74 979 1 19 334
1920260N12284 1920 39 NA NA NOT_NAMED 1920-09-22 06:00:00 TS 30.5000 -91.6000 60 986 hurdat_atl main 0 0 O_____________ hurdat_atl AL021920 30.5000 -91.6000 TS 60 986 0 20 333
1920260N12284 1920 39 NA NA NOT_NAMED 1920-09-22 09:00:00 TS 31.3410 -92.1118 main 0 0 P_____________ AL021920 31.3410 -92.1118 TS 50 0 19 333
1920260N12284 1920 39 NA NA NOT_NAMED 1920-09-22 12:00:00 TS 32.2000 -92.6000 40 hurdat_atl main 0 0 O_____________ hurdat_atl AL021920 32.2000 -92.6000 TS 40 0 19 336
1920260N12284 1920 39 NA NA NOT_NAMED 1920-09-22 15:00:00 TS 33.0773 -93.0236 main 0 0 P_____________ AL021920 33.0773 -93.0236 TS 35 0 19 340
1920260N12284 1920 39 NA NA NOT_NAMED 1920-09-22 18:00:00 TS 34.0000 -93.4000 30 hurdat_atl main 0 0 O_____________ hurdat_atl AL021920 34.0000 -93.4000 TD 30 -1 20 342
1920260N12284 1920 39 NA NA NOT_NAMED 1920-09-22 21:00:00 TS 34.9699 -93.7586 main 0 0 P_____________ AL021920 34.9699 -93.7586 TD 30 -1 21 344
1920260N12284 1920 39 NA NA NOT_NAMED 1920-09-23 00:00:00 TS 36.0000 -94.1000 30 hurdat_atl main 0 0 O_____________ hurdat_atl AL021920 36.0000 -94.1000 TD 30 -1 22 345
1920260N12284 1920 39 NA NA NOT_NAMED 1920-09-23 03:00:00 TS 37.0852 -94.4452 main 0 0 P_____________ AL021920 37.0852 -94.4452 TD 27 -1 23 346
1920260N12284 1920 39 NA NA NOT_NAMED 1920-09-23 06:00:00 TS 38.2000 -94.8000 25 hurdat_atl main 0 O_____________ hurdat_atl AL021920 38.2000 -94.8000 TD 25 -1 23 346

IBTrACS Databaseについて

本データベースは、米国NOAAが公開する1842年以降の世界の熱帯低気圧のベストトラックデータアーカイブInternational Best Track Archive for Climate Stewardship (IBTrACS)を、ウェブで閲覧しやすい形式に変換したものです。

最終更新日:2021-12-01